Ana Sayfa
METAR-TAF:

METAR-TAF

Havaalanları :

Bedford, Pensilvanya, Amerika Birleşik Devletleri

Enlem: 40-05-10N, Boylam: 078-30-49W, yükseklik: 354 m

Güncel hava durumu gözlemi

Rapor saat 13:10 UTC de 25 dakika önce yapıldı.
Sakin rüzgar
Sıcaklık 17°C
Nem 100%
Basınç 1013 hPa
Görüş mesafesi: 16.1 km
3400 ft yükseklikte parçalı bulutlu
6000 ft yükseklikte parçalı çok bulutlu
9000 ft yükseklikte çok bulutlu

METAR: KHMZ 281310Z AUTO 00000KT 10SM SCT034 BKN060 OVC090 17/17 A2992 RMK AO2 LTG DSNT ALQS T01740170

Saat: 09:35 (13:35 UTC)


TAF: eksik

4.000'den fazla havaalanı için hava durumu gözlemleri ve tahminleri (METAR ve TAF raporları).

Kullanılabilir istasyonlar harita üzerinde sarı ve kırmızı noktalarla gösterilir.

İstasyonun adını görmek için fareyi noktanın üzerinde gezdirin.

Sonrasında hava gözlem ve tahminlerini görmek için tıklayın.

Haritayı değiştirmek için: yaklaştırmak için siyah artı işaretli yeşil düğmeye ve uzaklaştırmak için de eksi işaretli düğmeye hızla tıklayın; bitişik haritalar için yeşil okları kullanın.


METAR-TAF: